sensor_id;sensor_type;location;lat;lon;timestamp;pressure;altitude;pressure_sealevel;temperature;humidity
13478;BME280;12598;62.382;17.344;2023-02-17T00:00:44;100375.06;;;16.90;22.61
13478;BME280;12598;62.382;17.344;2023-02-17T00:01:46;100376.06;;;16.89;22.82
13478;BME280;12598;62.382;17.344;2023-02-17T00:02:48;100380.72;;;16.87;22.95
13478;BME280;12598;62.382;17.344;2023-02-17T00:03:51;100374.53;;;16.87;22.48
13478;BME280;12598;62.382;17.344;2023-02-17T00:04:53;100372.88;;;16.86;22.78
13478;BME280;12598;62.382;17.344;2023-02-17T00:05:55;100379.88;;;16.87;22.99
13478;BME280;12598;62.382;17.344;2023-02-17T00:06:57;100357.59;;;16.78;22.61
13478;BME280;12598;62.382;17.344;2023-02-17T00:07:59;100372.88;;;16.86;22.74
13478;BME280;12598;62.382;17.344;2023-02-17T00:09:01;100368.50;;;16.85;22.75
13478;BME280;12598;62.382;17.344;2023-02-17T00:10:05;100370.34;;;16.84;22.89
13478;BME280;12598;62.382;17.344;2023-02-17T00:11:07;100362.63;;;16.81;22.68
13478;BME280;12598;62.382;17.344;2023-02-17T00:12:08;100369.50;;;16.84;22.75
13478;BME280;12598;62.382;17.344;2023-02-17T00:13:10;100369.63;;;16.82;22.90
13478;BME280;12598;62.382;17.344;2023-02-17T00:14:12;100357.16;;;16.83;22.71
13478;BME280;12598;62.382;17.344;2023-02-17T00:15:14;100363.47;;;16.82;22.93
13478;BME280;12598;62.382;17.344;2023-02-17T00:16:19;100368.81;;;16.82;22.72
13478;BME280;12598;62.382;17.344;2023-02-17T00:17:21;100351.84;;;16.73;22.80
13478;BME280;12598;62.382;17.344;2023-02-17T00:18:23;100360.94;;;16.80;23.11
13478;BME280;12598;62.382;17.344;2023-02-17T00:19:25;100361.06;;;16.79;22.55
13478;BME280;12598;62.382;17.344;2023-02-17T00:20:27;100368.94;;;16.80;22.79
13478;BME280;12598;62.382;17.344;2023-02-17T00:21:31;100363.91;;;16.77;22.76
13478;BME280;12598;62.382;17.344;2023-02-17T00:22:33;100363.75;;;16.79;22.97
13478;BME280;12598;62.382;17.344;2023-02-17T00:23:35;100359.16;;;16.71;22.74
13478;BME280;12598;62.382;17.344;2023-02-17T00:24:38;100360.25;;;16.78;22.57
13478;BME280;12598;62.382;17.344;2023-02-17T00:25:40;100363.91;;;16.77;22.66
13478;BME280;12598;62.382;17.344;2023-02-17T00:26:42;100363.91;;;16.77;22.45
13478;BME280;12598;62.382;17.344;2023-02-17T00:27:44;100363.91;;;16.77;22.60
13478;BME280;12598;62.382;17.344;2023-02-17T00:28:47;100354.66;;;16.72;22.87
13478;BME280;12598;62.382;17.344;2023-02-17T00:29:49;100366.72;;;16.76;22.81
13478;BME280;12598;62.382;17.344;2023-02-17T00:30:51;100358.88;;;16.74;22.58
13478;BME280;12598;62.382;17.344;2023-02-17T00:31:54;100364.22;;;16.74;22.77
13478;BME280;12598;62.382;17.344;2023-02-17T00:32:56;100349.78;;;16.67;22.65
13478;BME280;12598;62.382;17.344;2023-02-17T00:33:58;100361.53;;;16.74;22.79
13478;BME280;12598;62.382;17.344;2023-02-17T00:35:00;100361.69;;;16.73;22.87
13478;BME280;12598;62.382;17.344;2023-02-17T00:36:07;100355.50;;;16.72;22.44
13478;BME280;12598;62.382;17.344;2023-02-17T00:37:11;100358.00;;;16.74;22.62
13478;BME280;12598;62.382;17.344;2023-02-17T00:38:13;100354.66;;;16.72;22.69
13478;BME280;12598;62.382;17.344;2023-02-17T00:39:15;100357.50;;;16.70;22.96
13478;BME280;12598;62.382;17.344;2023-02-17T00:40:17;100359.16;;;16.71;22.80
13478;BME280;12598;62.382;17.344;2023-02-17T00:41:20;100362.81;;;16.70;22.73
13478;BME280;12598;62.382;17.344;2023-02-17T00:42:23;100361.16;;;16.69;22.60
13478;BME280;12598;62.382;17.344;2023-02-17T00:43:25;100354.44;;;16.65;22.71
13478;BME280;12598;62.382;17.344;2023-02-17T00:44:27;100356.63;;;16.70;22.82
13478;BME280;12598;62.382;17.344;2023-02-17T00:45:29;100353.44;;;16.66;22.91
13478;BME280;12598;62.382;17.344;2023-02-17T00:46:31;100362.28;;;16.67;22.64
13478;BME280;12598;62.382;17.344;2023-02-17T00:47:33;100355.13;;;16.67;22.80
13478;BME280;12598;62.382;17.344;2023-02-17T00:48:35;100361.44;;;16.66;22.72
13478;BME280;12598;62.382;17.344;2023-02-17T00:49:38;100344.34;;;16.59;22.88
13478;BME280;12598;62.382;17.344;2023-02-17T00:50:40;100351.75;;;16.65;22.80
13478;BME280;12598;62.382;17.344;2023-02-17T00:51:43;100351.75;;;16.65;22.88
13478;BME280;12598;62.382;17.344;2023-02-17T00:52:46;100348.53;;;16.62;22.69
13478;BME280;12598;62.382;17.344;2023-02-17T00:53:47;100355.25;;;16.66;22.60
13478;BME280;12598;62.382;17.344;2023-02-17T00:54:49;100354.44;;;16.65;22.64
13478;BME280;12598;62.382;17.344;2023-02-17T00:55:51;100339.28;;;16.56;23.04
13478;BME280;12598;62.382;17.344;2023-02-17T00:56:53;100346.56;;;16.64;22.77
13478;BME280;12598;62.382;17.344;2023-02-17T00:57:57;100351.91;;;16.64;22.70
13478;BME280;12598;62.382;17.344;2023-02-17T00:58:59;100339.69;;;16.61;22.80
13478;BME280;12598;62.382;17.344;2023-02-17T01:00:00;100344.06;;;16.62;22.61
13478;BME280;12598;62.382;17.344;2023-02-17T01:01:03;100342.50;;;16.60;22.99
13478;BME280;12598;62.382;17.344;2023-02-17T01:02:05;100353.88;;;16.62;22.78
13478;BME280;12598;62.382;17.344;2023-02-17T01:03:07;100338.59;;;16.54;22.91
13478;BME280;12598;62.382;17.344;2023-02-17T01:04:09;100339.00;;;16.59;22.73
13478;BME280;12598;62.382;17.344;2023-02-17T01:05:11;100339.84;;;16.60;22.68
13478;BME280;12598;62.382;17.344;2023-02-17T01:06:21;100336.34;;;16.59;22.71
13478;BME280;12598;62.382;17.344;2023-02-17T01:07:23;100352.88;;;16.63;22.95
13478;BME280;12598;62.382;17.344;2023-02-17T01:08:25;100342.38;;;16.61;22.95
13478;BME280;12598;62.382;17.344;2023-02-17T01:09:27;100328.59;;;16.56;22.29
13478;BME280;12598;62.382;17.344;2023-02-17T01:10:29;100339.00;;;16.59;22.99
13478;BME280;12598;62.382;17.344;2023-02-17T01:11:32;100321.19;;;16.50;22.99
13478;BME280;12598;62.382;17.344;2023-02-17T01:12:35;100330.28;;;16.57;22.69
13478;BME280;12598;62.382;17.344;2023-02-17T01:13:37;100333.94;;;16.56;22.83
13478;BME280;12598;62.382;17.344;2023-02-17T01:14:38;100328.59;;;16.56;22.77
13478;BME280;12598;62.382;17.344;2023-02-17T01:15:43;100324.25;;;16.55;22.96
13478;BME280;12598;62.382;17.344;2023-02-17T01:16:47;100322.44;;;16.56;22.81
13478;BME280;12598;62.382;17.344;2023-02-17T01:17:49;100324.94;;;16.57;22.60
13478;BME280;12598;62.382;17.344;2023-02-17T01:18:55;100329.47;;;16.57;22.74
13478;BME280;12598;62.382;17.344;2023-02-17T01:19:58;100311.50;;;16.49;22.87
13478;BME280;12598;62.382;17.344;2023-02-17T01:20:59;100308.16;;;16.47;22.31
13478;BME280;12598;62.382;17.344;2023-02-17T01:22:01;100317.09;;;16.56;22.83
13478;BME280;12598;62.382;17.344;2023-02-17T01:23:04;100319.09;;;16.54;22.85
13478;BME280;12598;62.382;17.344;2023-02-17T01:24:07;100312.06;;;16.53;22.70
13478;BME280;12598;62.382;17.344;2023-02-17T01:25:09;100311.91;;;16.54;22.81
13478;BME280;12598;62.382;17.344;2023-02-17T01:26:16;100311.22;;;16.52;22.82
13478;BME280;12598;62.382;17.344;2023-02-17T01:27:18;100313.75;;;16.54;22.79
13478;BME280;12598;62.382;17.344;2023-02-17T01:28:21;100297.47;;;16.47;22.75
13478;BME280;12598;62.382;17.344;2023-02-17T01:29:23;100305.06;;;16.52;22.66
13478;BME280;12598;62.382;17.344;2023-02-17T01:30:25;100308.72;;;16.51;22.92
13478;BME280;12598;62.382;17.344;2023-02-17T01:31:27;100313.19;;;16.50;22.82
13478;BME280;12598;62.382;17.344;2023-02-17T01:32:29;100305.19;;;16.50;22.36
13478;BME280;12598;62.382;17.344;2023-02-17T01:33:31;100306.16;;;16.49;22.87
13478;BME280;12598;62.382;17.344;2023-02-17T01:34:33;100304.50;;;16.48;22.61
13478;BME280;12598;62.382;17.344;2023-02-17T01:35:34;100304.50;;;16.48;22.61
13478;BME280;12598;62.382;17.344;2023-02-17T01:36:36;100289.38;;;16.39;22.73
13478;BME280;12598;62.382;17.344;2023-02-17T01:37:38;100301.00;;;16.48;22.83
13478;BME280;12598;62.382;17.344;2023-02-17T01:38:40;100290.22;;;16.40;22.42
13478;BME280;12598;62.382;17.344;2023-02-17T01:39:42;100297.47;;;16.47;22.87
13478;BME280;12598;62.382;17.344;2023-02-17T01:40:47;100290.91;;;16.42;22.86
13478;BME280;12598;62.382;17.344;2023-02-17T01:41:49;100289.47;;;16.47;22.56
13478;BME280;12598;62.382;17.344;2023-02-17T01:42:53;100293.81;;;16.48;22.84
13478;BME280;12598;62.382;17.344;2023-02-17T01:44:04;100292.13;;;16.47;22.80
13478;BME280;12598;62.382;17.344;2023-02-17T01:46:20;100283.84;;;16.50;22.37
13478;BME280;12598;62.382;17.344;2023-02-17T01:47:22;100275.59;;;16.44;22.66
13478;BME280;12598;62.382;17.344;2023-02-17T01:49:35;100285.97;;;16.47;22.49
13478;BME280;12598;62.382;17.344;2023-02-17T01:51:57;100277.81;;;16.48;22.63
13478;BME280;12598;62.382;17.344;2023-02-17T01:53:01;100281.31;;;16.49;22.87
13478;BME280;12598;62.382;17.344;2023-02-17T01:54:29;100269.38;;;16.53;22.72
13478;BME280;12598;62.382;17.344;2023-02-17T01:55:36;100273.16;;;16.50;22.52
13478;BME280;12598;62.382;17.344;2023-02-17T01:56:41;100276.97;;;16.48;22.39
13478;BME280;12598;62.382;17.344;2023-02-17T01:57:44;100260.72;;;16.41;22.57
13478;BME280;12598;62.382;17.344;2023-02-17T01:58:53;100267.44;;;16.45;22.74
13478;BME280;12598;62.382;17.344;2023-02-17T01:59:56;100268.41;;;16.44;22.57
13478;BME280;12598;62.382;17.344;2023-02-17T02:01:00;100259.59;;;16.44;22.71
13478;BME280;12598;62.382;17.344;2023-02-17T02:02:04;100266.91;;;16.42;22.49
13478;BME280;12598;62.382;17.344;2023-02-17T02:03:08;100266.91;;;16.42;22.62
13478;BME280;12598;62.382;17.344;2023-02-17T02:04:11;100246.56;;;16.31;22.46
13478;BME280;12598;62.382;17.344;2023-02-17T02:05:17;100254.69;;;16.39;22.75
13478;BME280;12598;62.382;17.344;2023-02-17T02:06:22;100259.03;;;16.40;22.66
13478;BME280;12598;62.382;17.344;2023-02-17T02:07:29;100249.97;;;16.33;22.91
13478;BME280;12598;62.382;17.344;2023-02-17T02:08:40;100254.56;;;16.41;22.42
13478;BME280;12598;62.382;17.344;2023-02-17T02:09:49;100257.06;;;16.42;22.48
13478;BME280;12598;62.382;17.344;2023-02-17T02:10:52;100246.38;;;16.42;22.62
13478;BME280;12598;62.382;17.344;2023-02-17T02:11:54;100256.38;;;16.40;22.66
13478;BME280;12598;62.382;17.344;2023-02-17T02:12:56;100254.69;;;16.39;22.65
13478;BME280;12598;62.382;17.344;2023-02-17T02:13:58;100242.47;;;16.37;22.61
13478;BME280;12598;62.382;17.344;2023-02-17T02:15:07;100257.53;;;16.38;22.81
13478;BME280;12598;62.382;17.344;2023-02-17T02:28:52;100224.06;;;16.43;22.29
13478;BME280;12598;62.382;17.344;2023-02-17T02:30:05;100223.63;;;16.48;22.62
13478;BME280;12598;62.382;17.344;2023-02-17T02:31:38;100221.78;;;16.48;22.45
13478;BME280;12598;62.382;17.344;2023-02-17T02:32:57;100221.94;;;16.47;22.57
13478;BME280;12598;62.382;17.344;2023-02-17T02:34:31;100224.22;;;16.42;22.64
13478;BME280;12598;62.382;17.344;2023-02-17T02:37:11;100221.38;;;16.43;22.72
13478;BME280;12598;62.382;17.344;2023-02-17T02:39:29;100218.31;;;16.38;22.70
13478;BME280;12598;62.382;17.344;2023-02-17T02:40:36;100215.09;;;16.35;22.33
13478;BME280;12598;62.382;17.344;2023-02-17T02:42:02;100213.00;;;16.38;22.33
13478;BME280;12598;62.382;17.344;2023-02-17T02:43:06;100221.97;;;16.37;22.70
13478;BME280;12598;62.382;17.344;2023-02-17T02:44:10;100215.28;;;16.33;22.79
13478;BME280;12598;62.382;17.344;2023-02-17T02:45:17;100212.88;;;16.30;22.68
13478;BME280;12598;62.382;17.344;2023-02-17T02:46:20;100212.88;;;16.30;22.31
13478;BME280;12598;62.382;17.344;2023-02-17T02:47:57;100213.00;;;16.38;22.61
13478;BME280;12598;62.382;17.344;2023-02-17T02:49:01;100212.31;;;16.36;22.83
13478;BME280;12598;62.382;17.344;2023-02-17T02:50:05;100196.47;;;16.26;22.56
13478;BME280;12598;62.382;17.344;2023-02-17T02:51:26;100203.19;;;16.29;22.60
13478;BME280;12598;62.382;17.344;2023-02-17T02:56:04;100197.69;;;16.31;22.60
13478;BME280;12598;62.382;17.344;2023-02-17T03:01:12;100209.34;;;16.39;22.33
13478;BME280;12598;62.382;17.344;2023-02-17T03:03:40;100208.22;;;16.32;22.26
13478;BME280;12598;62.382;17.344;2023-02-17T03:06:23;100166.63;;;16.13;22.66
13478;BME280;12598;62.382;17.344;2023-02-17T03:07:34;100204.88;;;16.30;22.30
13478;BME280;12598;62.382;17.344;2023-02-17T03:08:43;100206.97;;;16.27;22.69
13478;BME280;12598;62.382;17.344;2023-02-17T03:09:50;100197.31;;;16.26;22.12
13478;BME280;12598;62.382;17.344;2023-02-17T03:10:53;100198.75;;;16.21;22.53
13478;BME280;12598;62.382;17.344;2023-02-17T03:11:57;100202.41;;;16.20;22.51
13478;BME280;12598;62.382;17.344;2023-02-17T03:13:01;100202.41;;;16.20;22.56
13478;BME280;12598;62.382;17.344;2023-02-17T03:14:07;100197.50;;;16.15;22.49
13478;BME280;12598;62.382;17.344;2023-02-17T03:15:28;100206.91;;;16.19;22.55
13478;BME280;12598;62.382;17.344;2023-02-17T03:16:34;100207.44;;;16.23;22.48
13478;BME280;12598;62.382;17.344;2023-02-17T03:17:37;100209.44;;;16.21;22.63
13478;BME280;12598;62.382;17.344;2023-02-17T03:18:40;100199.06;;;16.18;22.60
13478;BME280;12598;62.382;17.344;2023-02-17T03:19:43;100210.72;;;16.17;22.52
13478;BME280;12598;62.382;17.344;2023-02-17T03:20:53;100200.88;;;16.17;22.41
13478;BME280;12598;62.382;17.344;2023-02-17T03:23:09;100200.75;;;16.19;22.39
13478;BME280;12598;62.382;17.344;2023-02-17T03:24:12;100179.44;;;16.09;22.56
13478;BME280;12598;62.382;17.344;2023-02-17T03:25:14;100197.50;;;16.15;22.44
13478;BME280;12598;62.382;17.344;2023-02-17T03:26:17;100191.31;;;16.15;22.41
13478;BME280;12598;62.382;17.344;2023-02-17T03:27:20;100178.91;;;16.06;22.76
13478;BME280;12598;62.382;17.344;2023-02-17T03:28:22;100193.16;;;16.14;22.45
13478;BME280;12598;62.382;17.344;2023-02-17T03:29:24;100193.16;;;16.14;22.72
13478;BME280;12598;62.382;17.344;2023-02-17T03:30:27;100192.31;;;16.14;22.27
13478;BME280;12598;62.382;17.344;2023-02-17T03:31:29;100190.63;;;16.13;22.26
13478;BME280;12598;62.382;17.344;2023-02-17T03:32:31;100185.31;;;16.13;22.36
13478;BME280;12598;62.382;17.344;2023-02-17T03:33:33;100188.97;;;16.12;22.42
13478;BME280;12598;62.382;17.344;2023-02-17T03:34:35;100173.56;;;16.06;22.60
13478;BME280;12598;62.382;17.344;2023-02-17T03:35:37;100177.47;;;16.11;22.85
13478;BME280;12598;62.382;17.344;2023-02-17T03:36:39;100165.84;;;16.03;22.42
13478;BME280;12598;62.382;17.344;2023-02-17T03:37:40;100165.72;;;16.04;22.63
13478;BME280;12598;62.382;17.344;2023-02-17T03:38:42;100159.22;;;16.07;22.33
13478;BME280;12598;62.382;17.344;2023-02-17T03:39:44;100144.44;;;15.95;22.51
13478;BME280;12598;62.382;17.344;2023-02-17T03:40:46;100161.59;;;16.10;22.57
13478;BME280;12598;62.382;17.344;2023-02-17T03:41:48;100148.19;;;16.02;22.45
13478;BME280;12598;62.382;17.344;2023-02-17T03:42:52;100154.91;;;16.06;22.53
13478;BME280;12598;62.382;17.344;2023-02-17T03:43:54;100156.97;;;16.12;22.27
13478;BME280;12598;62.382;17.344;2023-02-17T03:44:56;100150.25;;;16.08;22.45
13478;BME280;12598;62.382;17.344;2023-02-17T03:45:57;100156.28;;;16.10;22.17
13478;BME280;12598;62.382;17.344;2023-02-17T03:46:59;100136.53;;;16.03;22.74
13478;BME280;12598;62.382;17.344;2023-02-17T03:48:01;100156.44;;;16.08;22.79
13478;BME280;12598;62.382;17.344;2023-02-17T03:49:03;100149.03;;;16.02;22.42
13478;BME280;12598;62.382;17.344;2023-02-17T03:50:05;100149.25;;;16.09;22.32
13478;BME280;12598;62.382;17.344;2023-02-17T03:51:19;100144.09;;;16.07;22.66
13478;BME280;12598;62.382;17.344;2023-02-17T03:52:21;100134.16;;;16.00;22.36
13478;BME280;12598;62.382;17.344;2023-02-17T03:53:23;100155.28;;;16.11;22.62
13478;BME280;12598;62.382;17.344;2023-02-17T03:54:26;100153.59;;;16.10;22.72
13478;BME280;12598;62.382;17.344;2023-02-17T03:55:27;100151.94;;;16.09;22.37
13478;BME280;12598;62.382;17.344;2023-02-17T03:56:30;100157.25;;;16.09;22.68
13478;BME280;12598;62.382;17.344;2023-02-17T03:57:32;100155.88;;;16.05;22.51
13478;BME280;12598;62.382;17.344;2023-02-17T03:58:35;100153.78;;;16.08;22.32
13478;BME280;12598;62.382;17.344;2023-02-17T03:59:37;100156.44;;;16.08;22.59
13478;BME280;12598;62.382;17.344;2023-02-17T04:00:39;100150.41;;;16.06;22.32
13478;BME280;12598;62.382;17.344;2023-02-17T04:01:41;100153.91;;;16.07;22.49
13478;BME280;12598;62.382;17.344;2023-02-17T04:02:43;100110.00;;;15.84;22.35
13478;BME280;12598;62.382;17.344;2023-02-17T04:03:45;100145.91;;;16.07;22.53
13478;BME280;12598;62.382;17.344;2023-02-17T04:04:46;100152.91;;;16.08;22.36
13478;BME280;12598;62.382;17.344;2023-02-17T04:05:48;100149.44;;;16.07;22.62
13478;BME280;12598;62.382;17.344;2023-02-17T04:06:50;100145.78;;;16.08;22.31
13478;BME280;12598;62.382;17.344;2023-02-17T04:07:52;100145.78;;;16.08;22.75
13478;BME280;12598;62.382;17.344;2023-02-17T04:08:54;100143.09;;;16.08;22.41
13478;BME280;12598;62.382;17.344;2023-02-17T04:09:56;100144.91;;;16.08;22.56
13478;BME280;12598;62.382;17.344;2023-02-17T04:10:59;100143.94;;;16.09;22.69
13478;BME280;12598;62.382;17.344;2023-02-17T04:12:01;100128.22;;;16.06;22.73
13478;BME280;12598;62.382;17.344;2023-02-17T04:13:03;100127.25;;;16.07;22.64
13478;BME280;12598;62.382;17.344;2023-02-17T04:14:05;100139.28;;;16.11;22.62
13478;BME280;12598;62.382;17.344;2023-02-17T04:15:07;100131.75;;;16.06;22.52
13478;BME280;12598;62.382;17.344;2023-02-17T04:16:10;100130.97;;;16.14;22.78
13478;BME280;12598;62.382;17.344;2023-02-17T04:17:12;100126.63;;;16.13;22.67
13478;BME280;12598;62.382;17.344;2023-02-17T04:18:14;100128.31;;;16.14;22.35
13478;BME280;12598;62.382;17.344;2023-02-17T04:19:16;100125.50;;;16.15;22.50
13478;BME280;12598;62.382;17.344;2023-02-17T04:20:20;100124.66;;;16.15;22.69
13478;BME280;12598;62.382;17.344;2023-02-17T04:21:22;100126.34;;;16.16;22.30
13478;BME280;12598;62.382;17.344;2023-02-17T04:22:24;100125.50;;;16.15;22.32
13478;BME280;12598;62.382;17.344;2023-02-17T04:23:26;100121.00;;;16.16;22.21
13478;BME280;12598;62.382;17.344;2023-02-17T04:24:28;100121.00;;;16.16;22.40
13478;BME280;12598;62.382;17.344;2023-02-17T04:25:33;100121.00;;;16.16;22.32
13478;BME280;12598;62.382;17.344;2023-02-17T04:26:35;100116.13;;;16.11;22.17
13478;BME280;12598;62.382;17.344;2023-02-17T04:27:37;100130.53;;;16.18;22.20
13478;BME280;12598;62.382;17.344;2023-02-17T04:28:40;100114.59;;;16.09;22.58
13478;BME280;12598;62.382;17.344;2023-02-17T04:29:42;100128.88;;;16.17;22.11
13478;BME280;12598;62.382;17.344;2023-02-17T04:30:46;100127.19;;;16.16;22.40
13478;BME280;12598;62.382;17.344;2023-02-17T04:31:48;100113.47;;;16.11;22.39
13478;BME280;12598;62.382;17.344;2023-02-17T04:32:50;100128.03;;;16.17;22.54
13478;BME280;12598;62.382;17.344;2023-02-17T04:33:52;100126.34;;;16.16;22.12
13478;BME280;12598;62.382;17.344;2023-02-17T04:34:54;100127.31;;;16.15;22.52
13478;BME280;12598;62.382;17.344;2023-02-17T04:35:56;100125.50;;;16.15;22.28
13478;BME280;12598;62.382;17.344;2023-02-17T04:37:00;100132.66;;;16.15;22.48
13478;BME280;12598;62.382;17.344;2023-02-17T04:38:02;100131.66;;;16.16;22.46
13478;BME280;12598;62.382;17.344;2023-02-17T04:39:04;100126.50;;;16.14;22.07
13478;BME280;12598;62.382;17.344;2023-02-17T04:40:06;100119.25;;;16.07;22.29
13478;BME280;12598;62.382;17.344;2023-02-17T04:41:11;100132.66;;;16.15;22.21
13478;BME280;12598;62.382;17.344;2023-02-17T04:42:12;100132.66;;;16.15;22.45
13478;BME280;12598;62.382;17.344;2023-02-17T04:43:14;100136.31;;;16.14;22.50
13478;BME280;12598;62.382;17.344;2023-02-17T04:44:16;100088.88;;;15.90;22.24
13478;BME280;12598;62.382;17.344;2023-02-17T04:45:18;100131.97;;;16.13;22.34
13478;BME280;12598;62.382;17.344;2023-02-17T04:46:20;100131.97;;;16.13;22.32
13478;BME280;12598;62.382;17.344;2023-02-17T04:47:22;100130.28;;;16.12;22.15
13478;BME280;12598;62.382;17.344;2023-02-17T04:48:25;100124.97;;;16.12;22.50
13478;BME280;12598;62.382;17.344;2023-02-17T04:49:27;100119.63;;;16.12;22.36
13478;BME280;12598;62.382;17.344;2023-02-17T04:50:29;100127.50;;;16.13;22.36
13478;BME280;12598;62.382;17.344;2023-02-17T04:51:31;100119.63;;;16.12;22.37
13478;BME280;12598;62.382;17.344;2023-02-17T04:52:33;100124.13;;;16.11;22.47
13478;BME280;12598;62.382;17.344;2023-02-17T04:53:34;100127.63;;;16.12;22.24
13478;BME280;12598;62.382;17.344;2023-02-17T04:54:36;100124.13;;;16.11;22.48
13478;BME280;12598;62.382;17.344;2023-02-17T04:55:39;100124.28;;;16.10;22.56
13478;BME280;12598;62.382;17.344;2023-02-17T04:56:41;100124.13;;;16.11;22.40
13478;BME280;12598;62.382;17.344;2023-02-17T04:57:43;100123.28;;;16.11;22.49
13478;BME280;12598;62.382;17.344;2023-02-17T04:58:45;100123.28;;;16.11;22.35
13478;BME280;12598;62.382;17.344;2023-02-17T04:59:47;100116.28;;;16.10;22.03
13478;BME280;12598;62.382;17.344;2023-02-17T05:00:49;100126.94;;;16.10;22.36
13478;BME280;12598;62.382;17.344;2023-02-17T05:01:51;100107.38;;;16.01;22.22
13478;BME280;12598;62.382;17.344;2023-02-17T05:02:53;100114.59;;;16.09;22.40
13478;BME280;12598;62.382;17.344;2023-02-17T05:03:55;100086.38;;;15.89;22.03
13478;BME280;12598;62.382;17.344;2023-02-17T05:04:56;100106.75;;;16.07;22.27
13478;BME280;12598;62.382;17.344;2023-02-17T05:05:58;100106.59;;;16.09;22.51
13478;BME280;12598;62.382;17.344;2023-02-17T05:07:00;100086.34;;;15.98;22.47
13478;BME280;12598;62.382;17.344;2023-02-17T05:08:02;100107.59;;;16.08;22.07
13478;BME280;12598;62.382;17.344;2023-02-17T05:09:04;100102.25;;;16.08;22.29
13478;BME280;12598;62.382;17.344;2023-02-17T05:10:06;100105.91;;;16.07;22.23
13478;BME280;12598;62.382;17.344;2023-02-17T05:11:08;100102.84;;;16.02;22.21
13478;BME280;12598;62.382;17.344;2023-02-17T05:12:10;100095.25;;;16.07;22.00
13478;BME280;12598;62.382;17.344;2023-02-17T05:13:12;100082.00;;;15.97;22.30
13478;BME280;12598;62.382;17.344;2023-02-17T05:14:14;100088.22;;;16.06;21.90
13478;BME280;12598;62.382;17.344;2023-02-17T05:15:16;100086.41;;;16.06;22.26
13478;BME280;12598;62.382;17.344;2023-02-17T05:16:17;100089.91;;;16.07;22.18
13478;BME280;12598;62.382;17.344;2023-02-17T05:17:19;100082.91;;;16.06;22.01
13478;BME280;12598;62.382;17.344;2023-02-17T05:18:21;100065.22;;;16.05;21.99
13478;BME280;12598;62.382;17.344;2023-02-17T05:19:23;100054.34;;;15.98;21.82
13478;BME280;12598;62.382;17.344;2023-02-17T05:20:25;100070.56;;;16.05;22.02
13478;BME280;12598;62.382;17.344;2023-02-17T05:21:27;100065.38;;;16.03;22.07
13478;BME280;12598;62.382;17.344;2023-02-17T05:22:29;100062.56;;;16.05;22.29
13478;BME280;12598;62.382;17.344;2023-02-17T05:23:31;100058.22;;;16.04;22.11
13478;BME280;12598;62.382;17.344;2023-02-17T05:24:32;100059.19;;;16.03;21.86
13478;BME280;12598;62.382;17.344;2023-02-17T05:25:34;100058.38;;;16.02;21.96
13478;BME280;12598;62.382;17.344;2023-02-17T05:26:37;100063.53;;;16.04;21.98
13478;BME280;12598;62.382;17.344;2023-02-17T05:27:39;100049.38;;;16.03;21.91
13478;BME280;12598;62.382;17.344;2023-02-17T05:28:41;100051.22;;;16.03;21.88
13478;BME280;12598;62.382;17.344;2023-02-17T05:29:42;100051.22;;;16.03;21.70
13478;BME280;12598;62.382;17.344;2023-02-17T05:30:47;100038.34;;;15.98;21.87
13478;BME280;12598;62.382;17.344;2023-02-17T05:31:49;100032.31;;;15.96;21.76
13478;BME280;12598;62.382;17.344;2023-02-17T05:32:51;100033.53;;;16.02;21.97
13478;BME280;12598;62.382;17.344;2023-02-17T05:33:54;100036.19;;;16.02;22.04
13478;BME280;12598;62.382;17.344;2023-02-17T05:34:56;100031.84;;;16.01;21.71
13478;BME280;12598;62.382;17.344;2023-02-17T05:36:05;100033.53;;;16.02;21.80
13478;BME280;12598;62.382;17.344;2023-02-17T05:37:08;100029.88;;;16.03;21.75
13478;BME280;12598;62.382;17.344;2023-02-17T05:38:10;100017.16;;;15.97;21.74
13478;BME280;12598;62.382;17.344;2023-02-17T05:39:12;100026.53;;;16.01;22.01
13478;BME280;12598;62.382;17.344;2023-02-17T05:40:14;100031.84;;;16.01;21.71
13478;BME280;12598;62.382;17.344;2023-02-17T05:41:17;100026.81;;;15.98;21.72
13478;BME280;12598;62.382;17.344;2023-02-17T05:42:19;100027.69;;;15.98;21.95
13478;BME280;12598;62.382;17.344;2023-02-17T05:43:22;100023.16;;;15.99;21.90
13478;BME280;12598;62.382;17.344;2023-02-17T05:44:24;100015.41;;;15.88;21.71
13478;BME280;12598;62.382;17.344;2023-02-17T05:45:26;100021.13;;;15.93;21.72
13478;BME280;12598;62.382;17.344;2023-02-17T05:46:27;100035.81;;;15.97;21.99
13478;BME280;12598;62.382;17.344;2023-02-17T05:47:29;100032.16;;;15.98;21.78
13478;BME280;12598;62.382;17.344;2023-02-17T05:48:32;100032.31;;;15.96;21.89
13478;BME280;12598;62.382;17.344;2023-02-17T05:49:34;100029.66;;;15.96;22.04
13478;BME280;12598;62.382;17.344;2023-02-17T05:50:36;100027.00;;;15.96;21.79
13478;BME280;12598;62.382;17.344;2023-02-17T05:51:38;100023.78;;;15.93;21.65
13478;BME280;12598;62.382;17.344;2023-02-17T05:52:40;100029.81;;;15.95;21.90
13478;BME280;12598;62.382;17.344;2023-02-17T05:53:43;100022.66;;;15.95;21.76
13478;BME280;12598;62.382;17.344;2023-02-17T05:54:45;100023.63;;;15.94;21.80
13478;BME280;12598;62.382;17.344;2023-02-17T05:55:47;100021.81;;;15.95;21.91
13478;BME280;12598;62.382;17.344;2023-02-17T05:56:49;100015.09;;;15.91;21.49
13478;BME280;12598;62.382;17.344;2023-02-17T05:57:51;100018.28;;;15.94;21.52
13478;BME280;12598;62.382;17.344;2023-02-17T05:58:53;100006.56;;;15.87;21.80